Atlanta, MI

2:01 PM EDT on May 22, 2015 (GMT -0400)
RAWS | | Change Station
CLOSE
Current Station
Personal Weather Station
Location: Atlanta, MI
Elevation: 895 ft
Nearby Weather Stations

Elev 895 ft 45.15 °N, 84.19 °W | Updated 53 minutes ago

Clear
Clear
56 °F
Feels Like 56 °F
N
12
Wind Variable Wind from NNW
Gusts 26.0 mph

Today
High -- | Low -- °F
--% Chance of Precip.
Yesterday
High -- | Low -- °F
Precip. -- in
6:00 AM 9:06 PM
Waxing Crescent, 23% visible
Pressure 30.25 in
Visibility 10.0 miles
Clouds Clear
Dew Point 19 °F
Humidity 23%
Rainfall in
Snow Depth Not available.
UV 11 out of 12
Pollen 9.10 out of 12
Air Quality Not available.
Flu Activity Local Activity
METAR KGLR 221753Z AUTO 34008G19KT 310V010 10SM CLR 11/M09 A3022 RMK AO2 SLP241 T01111094 10117 20050 51008

More Conditions Fewer Conditions

Pressure 30.25 in
Visibility 10.0 miles
Clouds Clear
Dew Point 19 °F
Humidity 23%
Rainfall in
Snow Depth Not available.
UV 11 out of 12
Pollen 9.10 out of 12
Air Quality Not available.
Flu Activity Local Activity
METAR KGLR 221753Z AUTO 34008G19KT 310V010 10SM CLR 11/M09 A3022 RMK AO2 SLP241 T01111094 10117 20050 51008

More Conditions Fewer Conditions

Nowcast | as of 2:00 PM EDT on May 22, 2015

freeze warning in effect from 11 PM this evening to 8 am EDT Saturday... At 3 PM...clear. Temperature 55. Northwest winds 14 mph. At 5 PM...clear. Temperature 56. Northwest winds 13 mph. At 7 PM...clear. Temperature 54. Northwest winds 10 mph. At 9 PM...clear. Temperature 47. West winds 6 mph.

×

10-Day Weather Forecast

Almanac

Astronomy

May. 22, 2015 Rise Set
Actual Time
Civil Twilight
Nautical Twilight
Astronomical Twilight
Moon
Length of Visible Light
Length of Day
Tomorrow will be .
, % of the Moon is Illuminated

Today's Extremes

State Highs State Lows

Community

WunderPhotos

Upload Photos

1,823,272 photos uploaded!

WunderBlogs® & News

Nearby

Air Quality

  Air Quality AQ Index Pollutant
Not available.

Snow Depth

Station Depth Elevation

Earthquake Activity

City Distance Mag. Time & Date
Minimum magnitude displayed is 2.5.

Coastal Water Temperatures

Place Temperature

Stations

Nearby Weather Stations

Station Location Temp. Windchill Dew Point Humidity Wind Precip. Elev Updated Type